createdAt,value
2023-06-29T00:02:21.143Z,1.77
2023-06-29T00:05:24.266Z,1.70
2023-06-29T00:08:28.580Z,1.90
2023-06-29T00:11:32.059Z,1.67
2023-06-29T00:14:34.774Z,1.80
2023-06-29T00:17:38.082Z,1.75
2023-06-29T00:20:42.127Z,1.80
2023-06-29T00:23:47.169Z,1.62
2023-06-29T00:26:50.272Z,1.77
2023-06-29T00:29:53.128Z,1.67
2023-06-29T00:32:56.144Z,1.37
2023-06-29T00:35:59.081Z,1.58
2023-06-29T00:39:01.634Z,1.70
2023-06-29T00:42:07.045Z,1.92
2023-06-29T00:45:10.425Z,1.80
2023-06-29T00:48:13.896Z,1.70
2023-06-29T00:51:17.365Z,1.60
2023-06-29T00:54:21.729Z,1.55
2023-06-29T00:57:25.356Z,1.67
2023-06-29T01:00:28.466Z,1.58
2023-06-29T01:03:32.192Z,1.40
2023-06-29T01:06:45.641Z,1.98
2023-06-29T01:09:48.647Z,1.48
2023-06-29T01:12:52.848Z,1.70
2023-06-29T01:15:56.355Z,1.60
2023-06-29T01:19:01.239Z,1.92
2023-06-29T01:22:09.271Z,1.90
2023-06-29T01:25:12.676Z,1.80
2023-06-29T01:28:15.458Z,1.87
2023-06-29T01:31:18.925Z,1.42
2023-06-29T01:34:22.869Z,1.70
2023-06-29T01:37:29.685Z,1.60
2023-06-29T01:40:33.556Z,1.55
2023-06-29T01:43:37.477Z,1.92
2023-06-29T01:46:40.593Z,1.70
2023-06-29T01:49:43.730Z,1.55
2023-06-29T01:52:46.598Z,1.73
2023-06-29T01:55:50.624Z,1.60
2023-06-29T01:58:53.301Z,1.80
2023-06-29T02:01:56.203Z,1.58
2023-06-29T02:05:00.319Z,2.17
2023-06-29T02:08:03.096Z,1.50
2023-06-29T02:11:06.118Z,1.37
2023-06-29T02:14:08.973Z,1.55
2023-06-29T02:17:11.902Z,1.40
2023-06-29T02:20:15.306Z,1.67
2023-06-29T02:23:17.892Z,2.00
2023-06-29T02:26:20.906Z,1.90
2023-06-29T02:29:24.422Z,1.60
2023-06-29T02:32:28.999Z,1.77
2023-06-29T02:35:31.671Z,1.65
2023-06-29T02:38:35.545Z,1.52
2023-06-29T02:41:38.173Z,1.90
2023-06-29T02:44:41.227Z,2.00
2023-06-29T02:47:44.134Z,1.92
2023-06-29T02:50:47.384Z,2.20
2023-06-29T02:53:50.270Z,2.20
2023-06-29T02:56:53.216Z,2.25
2023-06-29T02:59:55.853Z,2.28
2023-06-29T03:02:58.883Z,1.95
2023-06-29T03:06:01.553Z,2.08
2023-06-29T03:09:05.388Z,1.80
2023-06-29T03:12:10.536Z,2.50
2023-06-29T03:15:13.390Z,2.00
2023-06-29T03:18:15.981Z,1.98
2023-06-29T03:21:21.540Z,2.20
2023-06-29T03:24:24.050Z,2.20
2023-06-29T03:27:26.919Z,1.90
2023-06-29T03:30:29.456Z,2.08
2023-06-29T03:33:32.418Z,2.00
2023-06-29T03:36:34.996Z,1.92
2023-06-29T03:39:37.924Z,1.87
2023-06-29T03:42:40.523Z,2.20
2023-06-29T03:45:43.849Z,2.03
2023-06-29T03:48:46.604Z,2.30
2023-06-29T03:51:49.458Z,2.12
2023-06-29T03:54:52.083Z,2.12
2023-06-29T03:57:55.945Z,1.98
2023-06-29T04:00:58.558Z,1.98
2023-06-29T04:04:01.446Z,2.20
2023-06-29T04:07:04.250Z,2.45
2023-06-29T04:10:07.573Z,2.22
2023-06-29T04:13:10.255Z,2.28
2023-06-29T04:16:13.101Z,2.03
2023-06-29T04:19:17.134Z,2.15
2023-06-29T04:22:20.047Z,2.10
2023-06-29T04:25:22.645Z,2.03
2023-06-29T04:28:25.532Z,2.12
2023-06-29T04:31:29.439Z,1.90
2023-06-29T04:34:32.312Z,2.25
2023-06-29T04:37:41.758Z,2.20
2023-06-29T04:40:44.864Z,2.42
2023-06-29T04:43:48.941Z,2.08
2023-06-29T04:46:51.888Z,2.15
2023-06-29T04:49:58.083Z,2.20
2023-06-29T04:53:07.136Z,2.25
2023-06-29T04:56:09.810Z,1.83
2023-06-29T04:59:12.634Z,2.15
2023-06-29T05:02:15.272Z,2.10
2023-06-29T05:05:18.346Z,2.35
2023-06-29T05:08:20.989Z,2.30
2023-06-29T05:11:23.848Z,2.15
2023-06-29T05:14:27.741Z,2.40
2023-06-29T05:17:31.478Z,2.15
2023-06-29T05:20:35.515Z,2.30
2023-06-29T05:23:38.878Z,2.28
2023-06-29T05:26:41.409Z,2.28
2023-06-29T05:29:44.234Z,2.20
2023-06-29T05:32:46.862Z,2.15
2023-06-29T05:35:49.922Z,2.67
2023-06-29T05:38:52.592Z,2.17
2023-06-29T05:41:55.457Z,2.35
2023-06-29T05:44:59.750Z,2.22
2023-06-29T05:48:02.696Z,2.67
2023-06-29T05:51:05.383Z,1.90
2023-06-29T05:54:08.271Z,2.40
2023-06-29T05:57:10.937Z,2.40
2023-06-29T06:00:14.364Z,2.50
2023-06-29T06:03:21.243Z,2.85
2023-06-29T06:06:24.191Z,2.25
2023-06-29T06:09:27.089Z,2.33
2023-06-29T06:12:29.770Z,2.20
2023-06-29T06:15:32.762Z,2.25
2023-06-29T06:18:35.463Z,2.40
2023-06-29T06:21:38.374Z,2.12
2023-06-29T06:24:41.010Z,2.40
2023-06-29T06:27:44.704Z,2.12
2023-06-29T06:30:48.315Z,2.10
2023-06-29T06:33:54.233Z,2.60
2023-06-29T06:36:57.162Z,2.45
2023-06-29T06:40:00.100Z,2.25
2023-06-29T06:43:03.236Z,2.47
2023-06-29T06:46:06.083Z,2.60
2023-06-29T06:49:09.038Z,1.90
2023-06-29T06:52:12.010Z,2.33
2023-06-29T06:55:14.638Z,2.12
2023-06-29T06:58:17.471Z,2.20
2023-06-29T07:01:22.956Z,2.30
2023-06-29T07:04:25.903Z,2.40
2023-06-29T07:07:28.577Z,2.30
2023-06-29T07:10:31.393Z,2.30
2023-06-29T07:13:34.127Z,2.40
2023-06-29T07:16:37.080Z,2.40
2023-06-29T07:25:51.584Z,2.60
2023-06-29T07:28:54.594Z,2.37
2023-06-29T07:31:57.594Z,2.30
2023-06-29T07:35:00.502Z,2.87
2023-06-29T07:38:03.168Z,2.50
2023-06-29T07:41:06.340Z,2.40
2023-06-29T07:44:09.011Z,2.58
2023-06-29T07:47:11.990Z,2.22
2023-06-29T07:50:14.937Z,2.12
2023-06-29T07:53:17.841Z,2.10
2023-06-29T07:56:20.470Z,2.08
2023-06-29T07:59:23.448Z,2.33
2023-06-29T08:02:26.111Z,2.30
2023-06-29T08:08:34.833Z,2.17
2023-06-29T08:11:38.383Z,2.30
2023-06-29T08:14:40.966Z,2.25
2023-06-29T08:17:44.129Z,2.10
2023-06-29T08:20:49.668Z,2.00
2023-06-29T08:23:52.576Z,2.00
2023-06-29T08:26:55.353Z,1.90
2023-06-29T08:29:58.320Z,2.03
2023-06-29T08:33:00.934Z,2.10
2023-06-29T08:36:04.012Z,2.03
2023-06-29T08:39:06.745Z,2.40
2023-06-29T08:42:09.672Z,2.50
2023-06-29T08:45:12.493Z,2.17
2023-06-29T08:48:16.027Z,2.00
2023-06-29T08:51:20.348Z,2.28
2023-06-29T08:54:23.569Z,2.12
2023-06-29T08:57:26.236Z,1.92
2023-06-29T09:00:29.897Z,2.37
2023-06-29T09:03:33.355Z,2.00
2023-06-29T09:06:36.243Z,1.87
2023-06-29T09:09:39.152Z,2.12
2023-06-29T09:12:42.379Z,2.10
2023-06-29T09:15:46.403Z,2.42
2023-06-29T09:18:50.519Z,2.20
2023-06-29T09:21:53.148Z,1.85
2023-06-29T09:25:09.861Z,2.10
2023-06-29T09:28:16.177Z,2.00
2023-06-29T09:31:19.200Z,1.98
2023-06-29T09:34:23.644Z,1.98
2023-06-29T09:37:26.550Z,2.10
2023-06-29T09:40:29.378Z,1.83
2023-06-29T09:43:32.333Z,2.08
2023-06-29T09:46:37.261Z,1.90
2023-06-29T09:49:50.003Z,1.77
2023-06-29T09:52:55.044Z,2.05
2023-06-29T09:56:00.070Z,2.17
2023-06-29T09:59:03.570Z,1.77
2023-06-29T10:02:10.417Z,1.67
2023-06-29T10:05:13.371Z,1.90
2023-06-29T10:08:19.873Z,1.70
2023-06-29T10:11:28.304Z,1.85
2023-06-29T10:14:33.960Z,1.70
2023-06-29T10:18:16.337Z,1.70
2023-06-29T10:21:19.031Z,1.70
2023-06-29T10:24:25.825Z,1.65
2023-06-29T10:27:31.035Z,1.87
2023-06-29T10:31:03.297Z,1.75
2023-06-29T10:34:08.797Z,1.90
2023-06-29T10:37:11.702Z,1.80
2023-06-29T10:40:16.800Z,1.73
2023-06-29T10:43:19.728Z,2.03
2023-06-29T10:46:47.460Z,2.00
2023-06-29T10:49:56.753Z,1.87
2023-06-29T10:53:01.209Z,1.48
2023-06-29T10:56:04.317Z,2.08
2023-06-29T10:59:09.464Z,1.70
2023-06-29T11:02:13.122Z,1.65
2023-06-29T11:05:20.082Z,1.90
2023-06-29T11:08:24.032Z,2.00
2023-06-29T11:11:26.753Z,1.80
2023-06-29T11:14:29.839Z,1.60
2023-06-29T11:17:32.476Z,1.70
2023-06-29T11:20:38.884Z,1.58
2023-06-29T11:23:50.739Z,1.87
2023-06-29T11:26:56.812Z,1.60
2023-06-29T11:29:59.714Z,1.70
2023-06-29T11:33:05.270Z,2.00
2023-06-29T11:36:13.568Z,1.92
2023-06-29T11:39:18.953Z,1.70
2023-06-29T11:42:23.606Z,1.40
2023-06-29T11:45:26.683Z,1.50
2023-06-29T11:48:31.200Z,1.67
2023-06-29T11:55:07.395Z,1.65
2023-06-29T11:58:14.291Z,1.90
2023-06-29T12:01:17.129Z,1.92
2023-06-29T12:04:20.387Z,1.75
2023-06-29T12:07:55.522Z,1.60
2023-06-29T12:10:58.463Z,1.70
2023-06-29T12:14:02.308Z,1.80
2023-06-29T12:20:19.807Z,1.70
2023-06-29T12:23:22.896Z,1.70
2023-06-29T12:26:26.299Z,1.80
2023-06-29T12:29:29.158Z,1.50
2023-06-29T12:32:31.825Z,1.98
2023-06-29T12:35:34.953Z,1.83
2023-06-29T12:38:37.594Z,1.90
2023-06-29T12:41:40.405Z,1.92
2023-06-29T12:44:43.030Z,2.25
2023-06-29T12:47:45.937Z,1.80
2023-06-29T12:50:48.906Z,1.95
2023-06-29T12:53:52.013Z,1.83
2023-06-29T12:56:54.621Z,1.77
2023-06-29T12:59:59.297Z,1.60
2023-06-29T13:03:06.768Z,1.67
2023-06-29T13:06:09.830Z,1.98
2023-06-29T13:09:12.489Z,1.73
2023-06-29T13:12:15.992Z,1.85
2023-06-29T13:15:18.773Z,1.77
2023-06-29T13:18:21.669Z,1.95
2023-06-29T13:21:24.441Z,1.80
2023-06-29T13:24:27.468Z,1.75
2023-06-29T13:27:30.064Z,1.70
2023-06-29T13:30:33.520Z,1.52
2023-06-29T13:33:36.174Z,1.83
2023-06-29T13:36:39.158Z,1.80
2023-06-29T13:39:42.278Z,1.58
2023-06-29T13:42:45.321Z,1.80
2023-06-29T13:45:49.832Z,1.50
2023-06-29T13:48:53.248Z,1.60
2023-06-29T13:51:55.928Z,1.70
2023-06-29T13:54:59.233Z,1.70
2023-06-29T13:58:01.923Z,1.73
2023-06-29T14:01:04.755Z,1.70
2023-06-29T14:04:09.645Z,1.50
2023-06-29T14:07:12.385Z,1.58
2023-06-29T14:10:15.386Z,1.90
2023-06-29T14:13:17.974Z,1.73
2023-06-29T14:16:20.943Z,1.90
2023-06-29T14:19:23.553Z,1.83
2023-06-29T14:22:26.464Z,1.75
2023-06-29T14:25:29.080Z,1.80
2023-06-29T14:28:31.903Z,1.70
2023-06-29T14:31:36.616Z,1.65
2023-06-29T14:34:39.962Z,1.62
2023-06-29T14:37:42.581Z,1.70
2023-06-29T14:40:45.407Z,1.80
2023-06-29T14:43:48.015Z,1.80
2023-06-29T14:46:51.737Z,1.90
2023-06-29T14:49:54.342Z,1.52
2023-06-29T14:52:57.443Z,1.92
2023-06-29T14:56:08.283Z,1.98
2023-06-29T14:59:12.412Z,1.95
2023-06-29T15:02:15.192Z,1.50
2023-06-29T15:05:18.092Z,1.55
2023-06-29T15:08:20.700Z,1.70
2023-06-29T15:11:23.599Z,1.50
2023-06-29T15:14:26.720Z,1.40
2023-06-29T15:17:30.519Z,2.15
2023-06-29T15:20:33.264Z,1.58
2023-06-29T15:23:36.111Z,1.95
2023-06-29T15:26:38.863Z,1.73
2023-06-29T15:29:41.729Z,1.70
2023-06-29T15:32:44.394Z,1.92
2023-06-29T15:35:47.744Z,1.48
2023-06-29T15:38:50.605Z,1.90
2023-06-29T15:41:53.656Z,2.00
2023-06-29T15:44:56.373Z,1.90
2023-06-29T15:47:59.467Z,1.77
2023-06-29T15:51:02.388Z,2.08
2023-06-29T15:54:05.282Z,1.80
2023-06-29T15:57:07.905Z,1.70
2023-06-29T16:00:11.251Z,2.03
2023-06-29T16:03:14.213Z,2.05
2023-06-29T16:06:26.404Z,1.80
2023-06-29T16:09:33.282Z,1.90
2023-06-29T16:12:36.286Z,1.60
2023-06-29T16:15:38.861Z,2.30
2023-06-29T16:18:43.073Z,2.00
2023-06-29T16:21:46.508Z,1.75
2023-06-29T16:24:49.354Z,2.10
2023-06-29T16:27:52.191Z,2.33
2023-06-29T16:30:57.342Z,2.20
2023-06-29T16:34:00.068Z,2.10
2023-06-29T16:37:03.111Z,2.28
2023-06-29T16:40:06.568Z,2.15
2023-06-29T16:43:09.623Z,2.20
2023-06-29T16:46:12.193Z,2.03
2023-06-29T16:49:15.169Z,2.10
2023-06-29T16:52:17.740Z,2.20
2023-06-29T16:55:20.864Z,1.90
2023-06-29T16:58:27.082Z,2.28
2023-06-29T17:01:30.119Z,2.10
2023-06-29T17:04:32.860Z,2.15
2023-06-29T17:07:35.778Z,2.17
2023-06-29T17:10:38.498Z,2.20
2023-06-29T17:13:41.734Z,2.33
2023-06-29T17:16:44.545Z,2.20
2023-06-29T17:19:50.080Z,2.28
2023-06-29T17:22:52.667Z,2.20
2023-06-29T17:25:55.616Z,2.20
2023-06-29T17:28:58.387Z,2.22
2023-06-29T17:32:01.375Z,2.22
2023-06-29T17:35:04.339Z,2.37
2023-06-29T17:38:07.546Z,1.80
2023-06-29T17:41:11.630Z,2.20
2023-06-29T17:44:15.620Z,1.80
2023-06-29T17:47:18.364Z,1.65
2023-06-29T17:50:21.533Z,2.12
2023-06-29T17:53:24.063Z,2.03
2023-06-29T17:56:26.975Z,2.00
2023-06-29T17:59:29.575Z,2.05
2023-06-29T18:02:32.583Z,1.80
2023-06-29T18:05:35.623Z,1.92
2023-06-29T18:08:38.588Z,2.00
2023-06-29T18:11:41.431Z,2.30
2023-06-29T18:14:44.073Z,2.20
2023-06-29T18:17:46.963Z,1.92
2023-06-29T18:20:49.685Z,2.45
2023-06-29T18:23:52.604Z,2.00
2023-06-29T18:26:55.300Z,2.20
2023-06-29T18:29:58.258Z,2.30
2023-06-29T18:33:00.933Z,2.17
2023-06-29T18:36:04.094Z,2.10
2023-06-29T18:39:06.793Z,2.30
2023-06-29T18:42:11.343Z,2.00
2023-06-29T18:45:13.999Z,2.12
2023-06-29T18:48:16.876Z,2.00
2023-06-29T18:51:23.974Z,2.20
2023-06-29T18:54:27.036Z,2.22
2023-06-29T18:57:29.785Z,2.10
2023-06-29T19:00:32.716Z,2.35
2023-06-29T19:03:35.549Z,2.20
2023-06-29T19:06:38.543Z,2.12
2023-06-29T19:09:41.079Z,2.20
2023-06-29T19:12:43.931Z,2.50
2023-06-29T19:15:47.110Z,2.20
2023-06-29T19:18:50.399Z,2.05
2023-06-29T19:21:53.394Z,2.20
2023-06-29T19:24:56.362Z,2.33
2023-06-29T19:27:59.019Z,2.53
2023-06-29T19:31:02.173Z,2.10
2023-06-29T19:34:04.955Z,2.10
2023-06-29T19:37:07.800Z,2.05
2023-06-29T19:40:11.048Z,2.28
2023-06-29T19:43:14.026Z,2.70
2023-06-29T19:46:16.711Z,2.53
2023-06-29T19:49:20.154Z,2.20
2023-06-29T19:52:23.995Z,2.20
2023-06-29T19:55:26.858Z,2.47
2023-06-29T19:58:29.720Z,2.20
2023-06-29T20:01:32.723Z,2.65
2023-06-29T20:04:35.653Z,2.60
2023-06-29T20:07:40.733Z,2.53
2023-06-29T20:10:44.001Z,2.50
2023-06-29T20:13:46.834Z,2.30
2023-06-29T20:16:50.240Z,2.87
2023-06-29T20:19:55.189Z,2.53
2023-06-29T20:22:58.342Z,2.67
2023-06-29T20:26:01.223Z,2.58
2023-06-29T20:29:04.378Z,2.25
2023-06-29T20:32:07.553Z,2.37
2023-06-29T20:35:10.492Z,2.50
2023-06-29T20:38:13.128Z,2.62
2023-06-29T20:41:16.071Z,2.47
2023-06-29T20:44:19.524Z,2.42
2023-06-29T20:47:22.395Z,2.58
2023-06-29T20:50:25.256Z,2.33
2023-06-29T20:53:28.138Z,2.47
2023-06-29T20:56:30.996Z,2.65
2023-06-29T20:59:35.047Z,2.53
2023-06-29T21:02:38.138Z,2.50
2023-06-29T21:05:41.298Z,2.55
2023-06-29T21:08:44.027Z,2.97
2023-06-29T21:11:47.120Z,2.40
2023-06-29T21:14:50.040Z,3.12
2023-06-29T21:17:54.909Z,3.25
2023-06-29T21:20:57.800Z,3.10
2023-06-29T21:24:00.944Z,3.10
2023-06-29T21:27:03.972Z,3.17
2023-06-29T21:30:08.105Z,2.80
2023-06-29T21:33:10.902Z,3.30
2023-06-29T21:36:14.199Z,3.28
2023-06-29T21:39:16.754Z,3.20
2023-06-29T21:42:19.879Z,3.00
2023-06-29T21:45:25.984Z,3.30
2023-06-29T21:48:29.223Z,3.10
2023-06-29T21:51:32.012Z,3.33
2023-06-29T21:54:34.869Z,3.33
2023-06-29T21:57:37.634Z,3.85
2023-06-29T22:00:41.267Z,3.58
2023-06-29T22:03:45.268Z,4.28
2023-06-29T22:06:49.985Z,3.70
2023-06-29T22:09:54.737Z,3.65
2023-06-29T22:12:57.407Z,3.97
2023-06-29T22:16:00.272Z,3.70
2023-06-29T22:19:02.991Z,3.47
2023-06-29T22:22:08.559Z,3.50
2023-06-29T22:25:11.618Z,3.87
2023-06-29T22:28:15.632Z,3.70
2023-06-29T22:31:19.069Z,4.07
2023-06-29T22:34:22.527Z,3.35
2023-06-29T22:37:25.151Z,3.75
2023-06-29T22:40:28.062Z,3.75
2023-06-29T22:43:30.688Z,3.50
2023-06-29T22:46:33.631Z,3.83
2023-06-29T22:49:36.300Z,3.97
2023-06-29T22:52:39.190Z,3.40
2023-06-29T22:55:41.838Z,3.90
2023-06-29T22:58:44.744Z,3.85
2023-06-29T23:01:49.774Z,3.30
2023-06-29T23:04:53.623Z,3.70
2023-06-29T23:07:56.360Z,4.20
2023-06-29T23:10:59.270Z,3.90
2023-06-29T23:14:01.816Z,3.80
2023-06-29T23:17:04.930Z,3.75
2023-06-29T23:20:12.629Z,3.47
2023-06-29T23:23:15.406Z,4.30
2023-06-29T23:26:20.415Z,3.83
2023-06-29T23:29:23.419Z,4.10
2023-06-29T23:32:26.615Z,4.00
2023-06-29T23:35:29.473Z,3.70
2023-06-29T23:38:32.051Z,3.87
2023-06-29T23:41:34.955Z,3.80
2023-06-29T23:44:41.610Z,3.40
2023-06-29T23:47:44.719Z,3.60
2023-06-29T23:50:48.621Z,3.78
2023-06-29T23:53:51.449Z,3.62
2023-06-29T23:56:54.054Z,3.40
2023-06-29T23:59:57.107Z,3.47
